Time;durP1;ratioP1;P1;durP2;ratioP2;P2;SDS_P1;SDS_P2;PMS_P1;PMS_P2;Temp;Humidity;BMP_temperature;BMP_pressure;BME280_temperature;BME280_humidity;BME280_pressure;Samples;Min_cycle;Max_cycle;Signal;HPM_P1;HPM_P2
2021/04/06 00:01:38;;;;;;;;;;;;;;;8.37;75.67;100776.41;1680709;84;20206;-69
2021/04/06 00:04:13;;;;;;;;;;;;;;;8.35;75.63;100768.91;1678378;85;20242;-70
2021/04/06 00:06:48;;;;;;;;;;;;;;;8.34;75.86;100778.27;1689558;84;20337;-70
2021/04/06 00:09:24;;;;;;;;;;;;;;;8.36;75.87;100769.20;1680335;85;20342;-69
2021/04/06 00:12:03;;;;;;;;;;;;;;;8.36;75.89;100780.27;1667913;85;20189;-70
2021/04/06 00:14:34;;;;;;;;;;;;;;;8.38;75.96;100780.03;1671661;85;20626;-70
2021/04/06 00:17:07;;;;;;;;;;;;;;;8.38;75.91;100772.55;1617109;86;20576;-69
2021/04/06 00:19:41;;;;;;;;;;;;;;;8.38;76.00;100782.23;1674971;85;20196;-69
2021/04/06 00:22:17;;;;;;;;;;;;;;;8.36;75.96;100780.80;1689858;84;20329;-70
2021/04/06 00:24:51;;;;;;;;;;;;;;;8.29;76.08;100771.27;1678125;85;20323;-70
2021/04/06 00:27:26;;;;;;;;;;;;;;;8.25;76.22;100765.91;1641733;87;20208;-69
2021/04/06 00:30:00;;;;;;;;;;;;;;;8.19;76.32;100773.80;1672631;84;20534;-71
2021/04/06 00:32:32;;;;;;;;;;;;;;;8.14;76.53;100765.36;1685912;85;20571;-69
2021/04/06 00:35:05;;;;;;;;;;;;;;;8.15;76.92;100772.56;1690079;85;20258;-70
2021/04/06 00:37:46;;;;;;;;;;;;;;;8.18;76.89;100772.09;1684006;85;20341;-69
2021/04/06 00:40:19;;;;;;;;;;;;;;;8.21;76.92;100768.86;1684141;85;20200;-70
2021/04/06 00:42:58;;;;;;;;;;;;;;;8.23;76.76;100772.77;1666584;85;20300;-72
2021/04/06 00:45:35;;;;;;;;;;;;;;;8.19;76.73;100761.85;1650352;86;20264;-69
2021/04/06 00:48:19;;;;;;;;;;;;;;;8.18;76.83;100762.94;1654880;87;20228;-70
2021/04/06 00:51:09;;;;;;;;;;;;;;;8.17;76.87;100758.50;1654976;87;20189;-71
2021/04/06 00:53:59;;;;;;;;;;;;;;;8.15;77.07;100760.12;1650637;87;20195;-70
2021/04/06 00:56:32;;;;;;;;;;;;;;;8.20;77.25;100765.80;1624468;87;20264;-72
2021/04/06 00:59:10;;;;;;;;;;;;;;;8.23;77.46;100754.80;1654865;87;20533;-69
2021/04/06 01:01:49;;;;;;;;;;;;;;;8.24;77.51;100757.85;1649743;85;20189;-72
2021/04/06 01:04:26;;;;;;;;;;;;;;;8.24;77.89;100760.09;1637768;85;20196;-71
2021/04/06 01:07:12;;;;;;;;;;;;;;;8.29;78.44;100768.50;1654941;85;20260;-70
2021/04/06 01:09:51;;;;;;;;;;;;;;;8.31;78.57;100766.32;1654883;87;20264;-71
2021/04/06 01:12:26;;;;;;;;;;;;;;;8.26;78.93;100755.70;1644096;87;20191;-71
2021/04/06 01:14:58;;;;;;;;;;;;;;;8.24;79.29;100759.23;1654960;87;20260;-70
2021/04/06 01:17:32;;;;;;;;;;;;;;;8.27;79.63;100756.82;1651206;85;20229;-70
2021/04/06 01:20:12;;;;;;;;;;;;;;;8.27;79.84;100756.82;1651165;87;20272;-70
2021/04/06 01:22:47;;;;;;;;;;;;;;;8.26;80.32;100755.14;1653790;87;20197;-72
2021/04/06 01:25:30;;;;;;;;;;;;;;;8.33;80.67;100751.70;1645758;86;20190;-71
2021/04/06 01:28:08;;;;;;;;;;;;;;;8.36;80.75;100743.45;1654871;85;20557;-69
2021/04/06 01:30:47;;;;;;;;;;;;;;;8.41;80.95;100745.80;1654675;85;20225;-70
2021/04/06 01:33:30;;;;;;;;;;;;;;;8.42;81.10;100748.86;1645604;86;20526;-69
2021/04/06 01:36:05;;;;;;;;;;;;;;;8.45;81.12;100742.81;1654833;87;20189;-70
2021/04/06 01:38:41;;;;;;;;;;;;;;;8.49;81.29;100746.78;1654736;87;20625;-68
2021/04/06 01:41:12;;;;;;;;;;;;;;;8.55;81.41;100751.34;1625724;87;20203;-68
2021/04/06 01:43:50;;;;;;;;;;;;;;;8.61;81.25;100748.97;1655102;84;20263;-71
2021/04/06 01:46:20;;;;;;;;;;;;;;;8.62;81.18;100753.97;1686343;85;20234;-69
2021/04/06 01:48:51;;;;;;;;;;;;;;;8.61;81.14;100744.81;1683788;85;20227;-70
2021/04/06 01:51:23;;;;;;;;;;;;;;;8.62;81.35;100747.05;1671008;84;20529;-70
2021/04/06 01:53:55;;;;;;;;;;;;;;;8.64;81.50;100737.39;1668450;86;20192;-70
2021/04/06 01:56:29;;;;;;;;;;;;;;;8.66;81.43;100739.39;1668392;86;20256;-70
2021/04/06 01:59:03;;;;;;;;;;;;;;;8.67;81.44;100738.30;1671363;84;20300;-70
2021/04/06 02:01:34;;;;;;;;;;;;;;;8.73;81.45;100737.31;1674525;85;20196;-72
2021/04/06 02:04:06;;;;;;;;;;;;;;;8.75;81.37;100740.66;1668585;85;20650;-72
2021/04/06 02:06:39;;;;;;;;;;;;;;;8.80;81.38;100735.22;1676870;85;20621;-70
2021/04/06 02:09:11;;;;;;;;;;;;;;;8.80;81.23;100735.22;1668451;86;20240;-72
2021/04/06 02:11:45;;;;;;;;;;;;;;;8.78;81.26;100732.41;1668479;85;20304;-70
2021/04/06 02:14:23;;;;;;;;;;;;;;;8.75;81.28;100727.38;1668453;85;20259;-70
2021/04/06 02:16:57;;;;;;;;;;;;;;;8.75;81.52;100719.90;1671248;85;20203;-70
2021/04/06 02:19:32;;;;;;;;;;;;;;;8.72;81.48;100716.80;1676380;85;20259;-68
2021/04/06 02:22:14;;;;;;;;;;;;;;;8.71;81.60;100719.27;1669580;84;20224;-71
2021/04/06 02:24:47;;;;;;;;;;;;;;;8.64;81.62;100715.25;1678139;84;20309;-70
2021/04/06 02:27:27;;;;;;;;;;;;;;;8.58;81.80;100703.79;1668628;86;20637;-72
2021/04/06 02:30:00;;;;;;;;;;;;;;;8.62;82.12;100696.69;1678239;85;20272;-71
2021/04/06 02:32:34;;;;;;;;;;;;;;;8.69;82.01;100705.67;1671301;85;20200;-71
2021/04/06 02:35:08;;;;;;;;;;;;;;;8.68;81.76;100708.67;1674745;85;20331;-71
2021/04/06 02:37:42;;;;;;;;;;;;;;;8.67;81.73;100709.77;1672243;84;20318;-72
2021/04/06 02:40:15;;;;;;;;;;;;;;;8.66;81.69;100704.80;1696051;84;20253;-70
2021/04/06 02:42:49;;;;;;;;;;;;;;;8.63;81.61;100710.81;1677599;85;20578;-72
2021/04/06 02:45:28;;;;;;;;;;;;;;;8.61;81.66;100710.23;1679952;84;20270;-72
2021/04/06 02:48:06;;;;;;;;;;;;;;;8.59;81.54;100710.17;1668722;85;20186;-71
2021/04/06 02:50:39;;;;;;;;;;;;;;;8.58;81.65;100706.55;1674537;85;20230;-70
2021/04/06 02:53:13;;;;;;;;;;;;;;;8.58;81.69;100710.70;1679900;85;20234;-70
2021/04/06 02:55:45;;;;;;;;;;;;;;;8.58;81.62;100713.47;1675308;85;20300;-71
2021/04/06 02:58:17;;;;;;;;;;;;;;;8.54;81.51;100704.01;1660006;85;20567;-71
2021/04/06 03:00:49;;;;;;;;;;;;;;;8.56;81.58;100700.44;1667361;85;20362;-71
2021/04/06 03:03:25;;;;;;;;;;;;;;;8.54;81.45;100702.63;1658880;85;20253;-72
2021/04/06 03:06:12;;;;;;;;;;;;;;;8.50;81.47;100702.81;1674938;85;20538;-70
2021/04/06 03:08:45;;;;;;;;;;;;;;;8.47;81.46;100700.55;1668618;85;20191;-71
2021/04/06 03:11:17;;;;;;;;;;;;;;;8.49;81.44;100701.66;1679239;85;20308;-70
2021/04/06 03:13:51;;;;;;;;;;;;;;;8.49;81.25;100703.91;1667656;85;20204;-71
2021/04/06 03:16:24;;;;;;;;;;;;;;;8.49;81.13;100710.82;1658190;86;20177;-70
2021/04/06 03:18:59;;;;;;;;;;;;;;;8.47;80.79;100715.77;1662867;85;20178;-69
2021/04/06 03:21:32;;;;;;;;;;;;;;;8.43;80.50;100714.57;1682264;85;20195;-70
2021/04/06 03:24:04;;;;;;;;;;;;;;;8.43;80.38;100717.87;1685119;85;20238;-71
2021/04/06 03:26:36;;;;;;;;;;;;;;;8.44;80.28;100716.25;1664035;84;20188;-70
2021/04/06 03:29:08;;;;;;;;;;;;;;;8.45;79.96;100717.10;1672283;85;20194;-71
2021/04/06 03:31:40;;;;;;;;;;;;;;;8.45;79.86;100720.69;1668124;86;20242;-71
2021/04/06 03:34:12;;;;;;;;;;;;;;;8.44;79.62;100717.63;1661750;85;20262;-71
2021/04/06 03:36:44;;;;;;;;;;;;;;;8.37;79.65;100719.70;1686413;84;21076;-70
2021/04/06 03:39:16;;;;;;;;;;;;;;;8.36;79.81;100712.50;1679989;85;20535;-71
2021/04/06 03:41:48;;;;;;;;;;;;;;;8.55;82.84;100715.37;1680370;85;20283;-71
2021/04/06 03:44:23;;;;;;;;;;;;;;;8.95;84.19;100716.14;1681508;85;20346;-71
2021/04/06 03:47:00;;;;;;;;;;;;;;;9.32;83.74;100716.49;1664827;85;20232;-72
2021/04/06 03:49:33;;;;;;;;;;;;;;;9.63;83.37;100723.66;1657439;87;20201;-72
2021/04/06 03:52:08;;;;;;;;;;;;;;;9.99;82.89;100731.95;1661584;85;20186;-71
2021/04/06 03:54:48;;;;;;;;;;;;;;;10.38;82.40;100723.36;1657663;85;20252;-71
2021/04/06 04:00:09;;;;;;;;;;;;;;;10.91;79.97;100719.80;1662336;85;20214;-71
2021/04/06 04:02:41;;;;;;;;;;;;;;;11.17;78.69;100718.94;1642022;87;20234;-70
2021/04/06 04:05:14;;;;;;;;;;;;;;;11.21;76.32;100717.33;1663186;85;20195;-71
2021/04/06 04:07:45;;;;;;;;;;;;;;;10.96;74.63;100713.73;1679819;84;20618;-70
2021/04/06 04:10:18;;;;;;;;;;;;;;;10.68;74.12;100712.63;1673051;84;20194;-72
2021/04/06 04:12:50;;;;;;;;;;;;;;;10.38;74.09;100719.20;1661340;85;21049;-72
2021/04/06 04:15:22;;;;;;;;;;;;;;;10.10;74.52;100710.23;1644122;87;20216;-71
2021/04/06 04:17:53;;;;;;;;;;;;;;;9.84;75.07;100703.45;1663640;85;20198;-70
2021/04/06 04:20:25;;;;;;;;;;;;;;;9.66;75.82;100705.13;1664781;85;20190;-72
2021/04/06 04:22:57;;;;;;;;;;;;;;;9.53;76.43;100701.86;1657407;87;20289;-71
2021/04/06 04:25:30;;;;;;;;;;;;;;;9.48;77.12;100708.73;1664342;85;20202;-71
2021/04/06 04:28:02;;;;;;;;;;;;;;;9.49;77.42;100712.61;1685044;85;20226;-70
2021/04/06 04:30:38;;;;;;;;;;;;;;;9.47;77.58;100703.72;1687202;79;20368;-70
2021/04/06 04:33:10;;;;;;;;;;;;;;;9.43;77.78;100708.65;1736229;82;20235;-70
2021/04/06 04:35:41;;;;;;;;;;;;;;;9.38;78.05;100709.94;1734351;82;20244;-70
2021/04/06 04:38:13;;;;;;;;;;;;;;;9.36;78.43;100711.58;1720787;83;20655;-70
2021/04/06 04:40:45;;;;;;;;;;;;;;;9.36;78.66;100706.59;1739926;80;20601;-70
2021/04/06 04:43:16;;;;;;;;;;;;;;;9.37;78.78;100709.09;1740928;81;20585;-69
2021/04/06 04:45:48;;;;;;;;;;;;;;;9.43;78.85;100709.47;1738016;82;20229;-71
2021/04/06 04:48:20;;;;;;;;;;;;;;;9.48;78.87;100708.17;1733738;80;20261;-69
2021/04/06 04:50:51;;;;;;;;;;;;;;;9.47;78.84;100717.58;1744330;82;20641;-71
2021/04/06 04:53:24;;;;;;;;;;;;;;;9.50;78.88;100719.01;1702882;83;20300;-73
2021/04/06 04:55:55;;;;;;;;;;;;;;;9.57;78.97;100720.52;1693681;84;20249;-69
2021/04/06 04:58:27;;;;;;;;;;;;;;;9.69;78.94;100723.19;1681127;85;20300;-70
2021/04/06 05:01:00;;;;;;;;;;;;;;;9.77;78.63;100719.44;1681019;85;20354;-67
2021/04/06 05:03:33;;;;;;;;;;;;;;;9.82;78.47;100716.74;1694909;84;20298;-69
2021/04/06 05:06:06;;;;;;;;;;;;;;;9.85;78.20;100716.22;1692733;84;20194;-70
2021/04/06 05:08:40;;;;;;;;;;;;;;;9.86;78.07;100717.89;1691838;84;20224;-72
2021/04/06 05:11:12;;;;;;;;;;;;;;;9.93;78.20;100719.11;1694986;84;21053;-73
2021/04/06 05:13:44;;;;;;;;;;;;;;;10.05;77.73;100712.40;1694216;84;20635;-69
2021/04/06 05:16:15;;;;;;;;;;;;;;;10.29;77.72;100715.75;1695057;84;20213;-73
2021/04/06 05:18:47;;;;;;;;;;;;;;;10.58;77.42;100709.72;1694973;84;20522;-71
2021/04/06 05:21:21;;;;;;;;;;;;;;;10.92;76.70;100707.59;1692512;84;20248;-70
2021/04/06 05:23:54;;;;;;;;;;;;;;;11.39;75.52;100709.44;1690624;84;20188;-70
2021/04/06 05:26:26;;;;;;;;;;;;;;;11.76;73.90;100703.89;1694525;84;20220;-71
2021/04/06 05:28:57;;;;;;;;;;;;;;;12.05;72.55;100709.37;1695491;84;20244;-69
2021/04/06 05:31:29;;;;;;;;;;;;;;;12.45;71.27;100704.83;1689866;84;20555;-69
2021/04/06 05:34:00;;;;;;;;;;;;;;;12.81;69.14;100696.86;1683245;84;20218;-72
2021/04/06 05:36:32;;;;;;;;;;;;;;;13.04;68.06;100697.78;1687017;84;20292;-71
2021/04/06 05:39:06;;;;;;;;;;;;;;;13.24;66.90;100699.19;1686014;84;20215;-71
2021/04/06 05:41:44;;;;;;;;;;;;;;;13.36;66.57;100698.36;1682965;84;20268;-72
2021/04/06 05:44:17;;;;;;;;;;;;;;;13.64;65.65;100699.16;1685083;84;20247;-73
2021/04/06 05:46:53;;;;;;;;;;;;;;;13.80;64.44;100696.64;1686241;83;20286;-71
2021/04/06 05:49:32;;;;;;;;;;;;;;;13.89;63.96;100694.12;1677919;84;20321;-72
2021/04/06 05:52:04;;;;;;;;;;;;;;;14.05;63.25;100696.59;1687191;84;20601;-73
2021/04/06 05:54:36;;;;;;;;;;;;;;;14.13;62.37;100691.80;1687361;84;20204;-72
2021/04/06 05:57:08;;;;;;;;;;;;;;;14.22;62.58;100693.48;1684112;84;20271;-74
2021/04/06 05:59:42;;;;;;;;;;;;;;;14.32;61.72;100690.12;1685650;84;20197;-75
2021/04/06 06:02:14;;;;;;;;;;;;;;;14.34;61.57;100694.85;1687231;84;20262;-73
2021/04/06 06:04:47;;;;;;;;;;;;;;;14.37;61.17;100704.05;1686831;84;20242;-72
2021/04/06 06:07:19;;;;;;;;;;;;;;;14.43;61.04;100688.94;1690387;84;20581;-70
2021/04/06 06:09:51;;;;;;;;;;;;;;;14.54;60.91;100690.56;1691464;83;20792;-71
2021/04/06 06:12:22;;;;;;;;;;;;;;;14.60;60.71;100699.78;1690846;84;20264;-73
2021/04/06 06:14:56;;;;;;;;;;;;;;;14.77;60.61;100701.08;1691544;84;20258;-69
2021/04/06 06:17:29;;;;;;;;;;;;;;;14.97;59.72;100699.55;1704202;82;20216;-70
2021/04/06 06:20:04;;;;;;;;;;;;;;;15.26;59.43;100701.02;1703695;83;20275;-70
2021/04/06 06:22:37;;;;;;;;;;;;;;;15.54;58.77;100703.92;1710569;83;20221;-72
2021/04/06 06:25:11;;;;;;;;;;;;;;;15.67;57.84;100704.65;1711190;83;20187;-72
2021/04/06 06:27:48;;;;;;;;;;;;;;;15.69;56.88;100702.93;1702890;83;20257;-71
2021/04/06 06:30:35;;;;;;;;;;;;;;;15.63;56.58;100702.16;1706769;83;20581;-71
2021/04/06 06:33:28;;;;;;;;;;;;;;;15.64;56.34;100700.20;1721669;82;20254;-71
2021/04/06 06:36:05;;;;;;;;;;;;;;;15.50;56.55;100715.98;1730791;82;20286;-70
2021/04/06 06:38:57;;;;;;;;;;;;;;;15.36;56.69;100700.44;1717138;83;20326;-72
2021/04/06 06:41:34;;;;;;;;;;;;;;;15.22;56.76;100699.95;1722333;83;20334;-71
2021/04/06 06:44:09;;;;;;;;;;;;;;;15.15;57.04;100696.66;1723133;83;20264;-69
2021/04/06 06:46:41;;;;;;;;;;;;;;;15.23;57.39;100694.63;1713281;82;20336;-70
2021/04/06 06:49:14;;;;;;;;;;;;;;;15.37;57.15;100695.11;1721933;81;20288;-70
2021/04/06 06:51:48;;;;;;;;;;;;;;;15.60;56.46;100699.95;1733292;81;20301;-72
2021/04/06 06:54:25;;;;;;;;;;;;;;;15.73;55.47;100699.27;1725718;81;20606;-70
2021/04/06 06:56:59;;;;;;;;;;;;;;;15.80;54.95;100694.71;1731178;81;20260;-71
2021/04/06 06:59:35;;;;;;;;;;;;;;;15.72;55.09;100706.56;1742164;81;20262;-69
2021/04/06 07:02:28;;;;;;;;;;;;;;;15.57;55.27;100711.72;1733749;81;20341;-70
2021/04/06 07:05:21;;;;;;;;;;;;;;;15.37;55.22;100711.90;1704344;83;20240;-72
2021/04/06 07:08:04;;;;;;;;;;;;;;;15.14;55.76;100712.59;1741371;82;21049;-69
2021/04/06 07:10:40;;;;;;;;;;;;;;;14.82;56.41;100720.62;1712907;83;20196;-72
2021/04/06 07:13:21;;;;;;;;;;;;;;;14.52;56.96;100719.37;1717950;83;20226;-70
2021/04/06 07:15:55;;;;;;;;;;;;;;;14.27;57.81;100724.20;1720532;82;20316;-73
2021/04/06 07:18:28;;;;;;;;;;;;;;;14.07;58.58;100721.44;1733375;82;20306;-70
2021/04/06 07:21:04;;;;;;;;;;;;;;;13.90;59.07;100725.09;1728989;83;20191;-70
2021/04/06 07:23:37;;;;;;;;;;;;;;;13.68;59.52;100717.03;1717702;83;20316;-70
2021/04/06 07:26:13;;;;;;;;;;;;;;;13.52;60.14;100708.95;1745367;80;20330;-70
2021/04/06 07:28:46;;;;;;;;;;;;;;;13.54;60.71;100717.87;1721694;81;20194;-69
2021/04/06 07:31:20;;;;;;;;;;;;;;;13.65;60.78;100709.78;1729076;80;20541;-71
2021/04/06 07:33:52;;;;;;;;;;;;;;;13.61;60.24;100723.45;1745300;80;20338;-71
2021/04/06 07:36:25;;;;;;;;;;;;;;;13.47;60.55;100714.53;1707016;84;20605;-72
2021/04/06 07:39:00;;;;;;;;;;;;;;;13.34;60.89;100725.70;1707800;84;21036;-70
2021/04/06 07:41:34;;;;;;;;;;;;;;;13.25;61.11;100732.92;1712401;83;21390;-71
2021/04/06 07:44:08;;;;;;;;;;;;;;;13.16;61.71;100714.23;1689033;83;20265;-71
2021/04/06 07:46:46;;;;;;;;;;;;;;;13.10;61.97;100727.34;1717860;83;20586;-70
2021/04/06 07:49:23;;;;;;;;;;;;;;;13.01;61.97;100728.98;1694894;84;20216;-69
2021/04/06 07:51:58;;;;;;;;;;;;;;;13.02;62.30;100720.08;1707164;84;20264;-68
2021/04/06 07:54:41;;;;;;;;;;;;;;;13.15;62.46;100725.11;1708529;84;20305;-69
2021/04/06 07:57:15;;;;;;;;;;;;;;;13.25;61.54;100724.56;1709771;84;20272;-70
2021/04/06 07:59:51;;;;;;;;;;;;;;;13.16;61.49;100728.17;1711854;84;20230;-71
2021/04/06 08:02:30;;;;;;;;;;;;;;;13.04;61.47;100712.27;1707284;83;20317;-72
2021/04/06 08:05:03;;;;;;;;;;;;;;;13.02;62.16;100721.47;1704870;83;20519;-70
2021/04/06 08:07:36;;;;;;;;;;;;;;;13.03;61.81;100717.56;1712185;84;20262;-70
2021/04/06 08:10:19;;;;;;;;;;;;;;;13.04;61.97;100714.50;1707889;84;20246;-72
2021/04/06 08:12:52;;;;;;;;;;;;;;;13.07;61.95;100720.09;1711307;83;20235;-70
2021/04/06 08:15:30;;;;;;;;;;;;;;;13.04;61.61;100717.84;1707728;82;20656;-71
2021/04/06 08:18:05;;;;;;;;;;;;;;;12.91;61.57;100710.80;1707427;82;20329;-70
2021/04/06 08:20:41;;;;;;;;;;;;;;;12.84;61.84;100708.02;1712019;83;20586;-70
2021/04/06 08:23:18;;;;;;;;;;;;;;;12.75;61.99;100724.97;1708647;83;20318;-72
2021/04/06 08:25:54;;;;;;;;;;;;;;;12.64;62.08;100725.50;1705649;84;20237;-72
2021/04/06 10:21:40;;;;;;;;;;;;;;;11.92;59.74;100635.55;1094875;130;20268;-71
2021/04/06 10:24:22;;;;;;;;;;;;;;;11.98;59.32;100642.81;1865481;76;20486;-70
2021/04/06 10:27:13;;;;;;;;;;;;;;;11.96;60.10;100643.65;1820078;79;20250;-71
2021/04/06 10:29:45;;;;;;;;;;;;;;;11.96;60.16;100641.41;1784089;80;20248;-72
2021/04/06 10:32:35;;;;;;;;;;;;;;;11.86;60.24;100625.50;1799873;79;20234;-70
2021/04/06 10:35:12;;;;;;;;;;;;;;;11.82;60.54;100625.78;1804558;79;20539;-67
2021/04/06 10:37:52;;;;;;;;;;;;;;;11.79;60.96;100621.31;1819278;78;20583;-71
2021/04/06 10:40:39;;;;;;;;;;;;;;;11.84;61.40;100614.36;1812037;79;20280;-72
2021/04/06 10:43:21;;;;;;;;;;;;;;;11.99;60.95;100613.05;1805184;79;20233;-70
2021/04/06 10:46:01;;;;;;;;;;;;;;;12.05;60.00;100593.30;1802048;79;20290;-72
2021/04/06 10:48:38;;;;;;;;;;;;;;;12.05;60.44;100591.91;1805094;79;20175;-71
2021/04/06 10:51:12;;;;;;;;;;;;;;;12.14;60.62;100601.42;1806724;79;20621;-70
2021/04/06 10:53:55;;;;;;;;;;;;;;;12.23;60.15;100589.20;1805525;79;20222;-72
2021/04/06 10:56:29;;;;;;;;;;;;;;;12.24;59.85;100592.27;1809869;78;20270;-72
2021/04/06 10:59:09;;;;;;;;;;;;;;;12.21;59.96;100581.66;1794365;79;20347;-72
2021/04/06 11:01:50;;;;;;;;;;;;;;;12.20;60.18;100578.06;1801548;79;20327;-69
2021/04/06 11:04:23;;;;;;;;;;;;;;;12.23;60.49;100588.64;1808576;79;20333;-70
2021/04/06 11:07:00;;;;;;;;;;;;;;;12.17;60.12;100584.16;1800615;79;20653;-70
2021/04/06 11:09:48;;;;;;;;;;;;;;;12.05;60.31;100569.66;1808033;79;20285;-71
2021/04/06 11:12:19;;;;;;;;;;;;;;;12.00;60.62;100571.59;1803306;79;20246;-71
2021/04/06 11:14:52;;;;;;;;;;;;;;;11.93;60.93;100570.44;1802351;79;20340;-71
2021/04/06 11:17:25;;;;;;;;;;;;;;;11.96;61.33;100571.84;1805478;77;20282;-70
2021/04/06 11:19:58;;;;;;;;;;;;;;;12.02;61.11;100552.67;1809921;78;20578;-71
2021/04/06 11:22:29;;;;;;;;;;;;;;;12.05;61.34;100559.09;1822831;79;20206;-68
2021/04/06 11:25:01;;;;;;;;;;;;;;;12.10;61.02;100551.58;1805500;79;20177;-69
2021/04/06 11:27:33;;;;;;;;;;;;;;;12.23;60.96;100549.66;1817598;79;20254;-68
2021/04/06 11:30:06;;;;;;;;;;;;;;;12.30;60.61;100536.31;1801686;77;20253;-70
2021/04/06 11:32:38;;;;;;;;;;;;;;;12.34;60.88;100547.19;1819014;79;20286;-71
2021/04/06 11:35:10;;;;;;;;;;;;;;;12.34;60.58;100547.77;1812798;79;20511;-72
2021/04/06 11:37:42;;;;;;;;;;;;;;;12.26;60.74;100551.06;1816681;79;20218;-71
2021/04/06 11:40:14;;;;;;;;;;;;;;;12.17;60.89;100545.77;1805866;79;20592;-72
2021/04/06 11:42:48;;;;;;;;;;;;;;;12.02;61.27;100542.39;1806438;79;20530;-70
2021/04/06 11:45:23;;;;;;;;;;;;;;;11.95;61.68;100541.81;1794847;79;20335;-72
2021/04/06 11:47:54;;;;;;;;;;;;;;;11.98;62.29;100524.55;1790201;80;20220;-70
2021/04/06 11:50:25;;;;;;;;;;;;;;;12.09;62.40;100523.48;1794533;79;20185;-70
2021/04/06 11:52:57;;;;;;;;;;;;;;;12.18;62.50;100526.56;1807435;79;20322;-70
2021/04/06 11:55:29;;;;;;;;;;;;;;;12.23;61.59;100516.84;1806715;79;20578;-70
2021/04/06 11:58:02;;;;;;;;;;;;;;;12.15;61.48;100505.68;1805149;79;20249;-70
2021/04/06 12:00:33;;;;;;;;;;;;;;;12.04;62.01;100512.33;1808730;79;20227;-69
2021/04/06 12:03:05;;;;;;;;;;;;;;;12.03;62.24;100502.31;1806723;79;20187;-72
2021/04/06 12:05:37;;;;;;;;;;;;;;;12.00;61.79;100497.31;1797225;79;20284;-72
2021/04/06 12:08:09;;;;;;;;;;;;;;;11.92;62.44;100488.66;1790374;79;20289;-71
2021/04/06 12:10:43;;;;;;;;;;;;;;;11.90;62.78;100480.59;1797928;79;20419;-71
2021/04/06 12:13:16;;;;;;;;;;;;;;;11.92;63.09;100482.53;1808251;78;20519;-69
2021/04/06 12:15:47;;;;;;;;;;;;;;;11.99;63.04;100478.92;1808119;79;20251;-70
2021/04/06 12:18:19;;;;;;;;;;;;;;;12.08;63.16;100470.33;1822626;79;20175;-71
2021/04/06 12:20:50;;;;;;;;;;;;;;;12.16;62.88;100465.60;1818581;79;20198;-72
2021/04/06 12:23:24;;;;;;;;;;;;;;;12.22;62.81;100471.45;1797178;79;20220;-71
2021/04/06 12:25:55;;;;;;;;;;;;;;;12.23;62.16;100474.52;1813297;79;20306;-72
2021/04/06 12:28:27;;;;;;;;;;;;;;;12.12;62.53;100465.89;1797982;79;20249;-72
2021/04/06 12:30:58;;;;;;;;;;;;;;;12.04;62.91;100454.47;1793158;79;20229;-74
2021/04/06 12:33:32;;;;;;;;;;;;;;;12.04;63.28;100464.20;1822425;79;20182;-72
2021/04/06 12:36:04;;;;;;;;;;;;;;;12.04;63.61;100462.81;1822415;79;20283;-72
2021/04/06 12:38:36;;;;;;;;;;;;;;;12.06;63.56;100448.06;1822402;79;20187;-72
2021/04/06 12:41:09;;;;;;;;;;;;;;;12.08;63.55;100445.28;1795478;79;20553;-73
2021/04/06 12:43:41;;;;;;;;;;;;;;;12.15;63.37;100447.78;1790148;80;20249;-68
2021/04/06 12:46:14;;;;;;;;;;;;;;;12.18;63.24;100463.36;1790104;80;20606;-72
2021/04/06 12:48:46;;;;;;;;;;;;;;;12.22;62.58;100460.89;1790121;79;20299;-71
2021/04/06 12:51:18;;;;;;;;;;;;;;;12.26;62.34;100457.81;1790193;80;20193;-73
2021/04/06 12:53:51;;;;;;;;;;;;;;;12.30;62.31;100456.97;1790327;80;20174;-72
2021/04/06 12:56:23;;;;;;;;;;;;;;;12.34;62.34;100462.27;1790407;80;20185;-71
2021/04/06 12:58:55;;;;;;;;;;;;;;;12.36;62.20;100458.65;1798620;80;20605;-72
2021/04/06 13:01:28;;;;;;;;;;;;;;;12.31;62.12;100459.22;1787404;80;20598;-72
2021/04/06 13:04:01;;;;;;;;;;;;;;;12.28;62.37;100473.12;1790165;80;20252;-71
2021/04/06 13:06:33;;;;;;;;;;;;;;;12.23;62.69;100460.59;1798995;79;20182;-71
2021/04/06 13:09:05;;;;;;;;;;;;;;;12.24;62.87;100452.52;1822895;79;20258;-70
2021/04/06 13:11:37;;;;;;;;;;;;;;;12.23;62.82;100468.94;1822232;79;20315;-71
2021/04/06 13:14:11;;;;;;;;;;;;;;;12.23;62.61;100455.03;1822315;79;20253;-72
2021/04/06 13:16:42;;;;;;;;;;;;;;;12.19;62.65;100451.14;1819157;79;20326;-70
2021/04/06 13:19:14;;;;;;;;;;;;;;;12.21;62.87;100458.66;1808919;79;20249;-74
2021/04/06 13:21:46;;;;;;;;;;;;;;;12.23;62.82;100439.72;1802934;79;20245;-71
2021/04/06 13:24:18;;;;;;;;;;;;;;;12.25;62.71;100439.45;1792131;79;20256;-71
2021/04/06 13:26:51;;;;;;;;;;;;;;;12.23;63.05;100429.97;1780415;79;20289;-71
2021/04/06 13:29:22;;;;;;;;;;;;;;;12.26;63.21;100428.59;1710264;82;20584;-70
2021/04/06 13:31:55;;;;;;;;;;;;;;;12.23;63.13;100427.77;1737484;82;20298;-72
2021/04/06 13:34:27;;;;;;;;;;;;;;;12.10;63.18;100418.00;1741931;82;20192;-70
2021/04/06 13:36:58;;;;;;;;;;;;;;;12.03;63.42;100423.02;1744357;81;20176;-73
2021/04/06 13:39:30;;;;;;;;;;;;;;;11.97;63.91;100421.34;1727681;82;20599;-71
2021/04/06 13:42:03;;;;;;;;;;;;;;;11.91;64.26;100423.83;1723472;83;20254;-72
2021/04/06 13:44:36;;;;;;;;;;;;;;;11.85;64.90;100419.37;1723432;83;20608;-72
2021/04/06 13:47:08;;;;;;;;;;;;;;;11.80;65.60;100414.37;1723488;83;20259;-72
2021/04/06 13:49:40;;;;;;;;;;;;;;;11.77;65.85;100413.51;1723515;82;20255;-73
2021/04/06 13:52:11;;;;;;;;;;;;;;;11.70;66.20;100416.57;1730093;82;20302;-71
2021/04/06 13:54:43;;;;;;;;;;;;;;;11.71;66.33;100407.66;1734718;82;20228;-73
2021/04/06 13:57:15;;;;;;;;;;;;;;;11.73;66.16;100411.83;1734564;82;20189;-73
2021/04/06 13:59:50;;;;;;;;;;;;;;;11.71;66.31;100405.72;1733169;82;20179;-69
2021/04/06 14:02:23;;;;;;;;;;;;;;;11.70;66.71;100404.59;1733764;82;20189;-70
2021/04/06 14:04:55;;;;;;;;;;;;;;;11.68;66.89;100402.66;1735676;82;20583;-72
2021/04/06 14:07:27;;;;;;;;;;;;;;;11.65;67.15;100406.83;1733215;82;20208;-71
2021/04/06 14:10:01;;;;;;;;;;;;;;;11.64;67.42;100407.94;1734856;82;20286;-72
2021/04/06 14:12:33;;;;;;;;;;;;;;;11.65;67.69;100408.22;1731845;81;20337;-71
2021/04/06 14:15:09;;;;;;;;;;;;;;;11.70;67.75;100406.84;1736915;82;20232;-70
2021/04/06 14:17:41;;;;;;;;;;;;;;;11.73;67.71;100409.05;1733115;82;20353;-70
2021/04/06 14:20:16;;;;;;;;;;;;;;;11.75;67.58;100407.39;1733204;82;20259;-72
2021/04/06 14:22:48;;;;;;;;;;;;;;;11.73;67.40;100417.97;1733051;82;20678;-70
2021/04/06 14:25:22;;;;;;;;;;;;;;;11.71;67.61;100415.45;1735251;82;20262;-71
2021/04/06 14:27:56;;;;;;;;;;;;;;;11.67;67.58;100414.33;1730494;82;20269;-70
2021/04/06 14:30:34;;;;;;;;;;;;;;;11.65;67.54;100408.75;1732035;82;20271;-69
2021/04/06 14:33:06;;;;;;;;;;;;;;;11.63;67.61;100403.45;1745243;82;20203;-70
2021/04/06 14:35:38;;;;;;;;;;;;;;;11.56;67.79;100402.05;1746299;82;20244;-70
2021/04/06 14:38:10;;;;;;;;;;;;;;;11.55;68.34;100404.55;1746407;82;20240;-70
2021/04/06 14:40:42;;;;;;;;;;;;;;;11.56;68.28;100401.47;1746047;82;20234;-70
2021/04/06 14:43:20;;;;;;;;;;;;;;;11.54;68.33;100396.74;1745950;82;20220;-70
2021/04/06 14:45:53;;;;;;;;;;;;;;;11.50;68.63;100399.78;1746241;82;20490;-70
2021/04/06 14:48:28;;;;;;;;;;;;;;;11.51;68.89;100385.34;1745319;82;20215;-70
2021/04/06 14:51:01;;;;;;;;;;;;;;;11.56;68.99;100386.17;1745554;82;20218;-70
2021/04/06 14:53:35;;;;;;;;;;;;;;;11.53;68.48;100385.35;1730501;82;20595;-69
2021/04/06 14:56:07;;;;;;;;;;;;;;;11.49;68.51;100393.13;1729223;82;20623;-69
2021/04/06 14:58:41;;;;;;;;;;;;;;;11.46;68.71;100388.95;1725759;82;20247;-70
2021/04/06 15:01:14;;;;;;;;;;;;;;;11.44;68.95;100380.03;1725778;82;20415;-71
2021/04/06 15:03:50;;;;;;;;;;;;;;;11.46;69.10;100374.20;1730017;82;20524;-73
2021/04/06 15:06:25;;;;;;;;;;;;;;;11.42;69.29;100373.06;1722240;82;20294;-72
2021/04/06 15:09:02;;;;;;;;;;;;;;;11.29;69.51;100371.66;1716031;82;20246;-70
2021/04/06 15:11:35;;;;;;;;;;;;;;;11.18;69.91;100369.95;1729346;82;20184;-76
2021/04/06 15:14:06;;;;;;;;;;;;;;;11.11;70.25;100366.59;1731812;82;20287;-75